sensor_id;sensor_type;location;lat;lon;timestamp;pressure;altitude;pressure_sealevel;temperature;humidity
43745;BME280;29359;53.048;8.732;2023-04-26T00:00:28;101734.91;;;3.71;87.14
43745;BME280;29359;53.048;8.732;2023-04-26T00:02:30;101735.81;;;3.73;86.96
43745;BME280;29359;53.048;8.732;2023-04-26T00:04:33;101729.75;;;3.76;86.86
43745;BME280;29359;53.048;8.732;2023-04-26T00:06:35;101734.13;;;3.78;86.88
43745;BME280;29359;53.048;8.732;2023-04-26T00:08:37;101734.09;;;3.77;86.69
43745;BME280;29359;53.048;8.732;2023-04-26T00:10:39;101737.63;;;3.79;87.22
43745;BME280;29359;53.048;8.732;2023-04-26T00:12:41;101733.28;;;3.79;86.97
43745;BME280;29359;53.048;8.732;2023-04-26T00:14:43;101734.16;;;3.80;86.74
43745;BME280;29359;53.048;8.732;2023-04-26T00:16:44;101736.81;;;3.83;86.46
43745;BME280;29359;53.048;8.732;2023-04-26T00:18:46;101735.91;;;3.83;86.41
43745;BME280;29359;53.048;8.732;2023-04-26T00:20:49;101739.38;;;3.80;86.81
43745;BME280;29359;53.048;8.732;2023-04-26T00:22:51;101738.50;;;3.79;86.89
43745;BME280;29359;53.048;8.732;2023-04-26T00:24:53;101735.88;;;3.78;86.51
43745;BME280;29359;53.048;8.732;2023-04-26T00:26:55;101736.72;;;3.77;86.71
43745;BME280;29359;53.048;8.732;2023-04-26T00:28:56;101732.38;;;3.77;86.44
43745;BME280;29359;53.048;8.732;2023-04-26T00:30:58;101738.44;;;3.75;86.64
43745;BME280;29359;53.048;8.732;2023-04-26T00:32:59;101743.59;;;3.70;86.55
43745;BME280;29359;53.048;8.732;2023-04-26T00:37:07;101742.63;;;3.64;87.03
43745;BME280;29359;53.048;8.732;2023-04-26T00:39:08;101739.13;;;3.62;86.86
43745;BME280;29359;53.048;8.732;2023-04-26T00:41:10;101734.72;;;3.59;86.72
43745;BME280;29359;53.048;8.732;2023-04-26T00:43:12;101738.16;;;3.55;86.96
43745;BME280;29359;53.048;8.732;2023-04-26T00:45:13;101737.22;;;3.52;87.28
43745;BME280;29359;53.048;8.732;2023-04-26T00:47:15;101734.56;;;3.49;87.34
43745;BME280;29359;53.048;8.732;2023-04-26T00:49:19;101730.16;;;3.46;87.83
43745;BME280;29359;53.048;8.732;2023-04-26T00:51:21;101741.44;;;3.45;87.89
43745;BME280;29359;53.048;8.732;2023-04-26T00:53:23;101738.78;;;3.42;87.96
43745;BME280;29359;53.048;8.732;2023-04-26T00:55:25;101740.47;;;3.38;88.15
43745;BME280;29359;53.048;8.732;2023-04-26T00:57:27;101748.28;;;3.37;87.95
43745;BME280;29359;53.048;8.732;2023-04-26T00:59:29;101746.50;;;3.34;88.53
43745;BME280;29359;53.048;8.732;2023-04-26T01:01:30;101745.59;;;3.31;88.43
43745;BME280;29359;53.048;8.732;2023-04-26T01:03:32;101734.25;;;3.29;88.68
43745;BME280;29359;53.048;8.732;2023-04-26T01:05:34;101736.00;;;3.30;88.39
43745;BME280;29359;53.048;8.732;2023-04-26T01:07:37;101733.38;;;3.28;88.95
43745;BME280;29359;53.048;8.732;2023-04-26T01:09:41;101737.72;;;3.29;88.79
43745;BME280;29359;53.048;8.732;2023-04-26T01:11:44;101738.59;;;3.28;88.98
43745;BME280;29359;53.048;8.732;2023-04-26T01:13:46;101737.72;;;3.28;89.17
43745;BME280;29359;53.048;8.732;2023-04-26T01:15:48;101744.66;;;3.27;89.19
43745;BME280;29359;53.048;8.732;2023-04-26T01:17:49;101741.16;;;3.27;89.17
43745;BME280;29359;53.048;8.732;2023-04-26T01:19:52;101750.72;;;3.26;89.19
43745;BME280;29359;53.048;8.732;2023-04-26T01:21:54;101747.22;;;3.24;89.40
43745;BME280;29359;53.048;8.732;2023-04-26T01:23:55;101751.56;;;3.24;89.60
43745;BME280;29359;53.048;8.732;2023-04-26T01:25:57;101760.28;;;3.26;90.24
43745;BME280;29359;53.048;8.732;2023-04-26T01:27:58;101758.56;;;3.26;90.06
43745;BME280;29359;53.048;8.732;2023-04-26T01:30:00;101769.94;;;3.31;89.88
43745;BME280;29359;53.048;8.732;2023-04-26T01:32:02;101765.59;;;3.32;90.01
43745;BME280;29359;53.048;8.732;2023-04-26T01:34:04;101766.56;;;3.37;89.38
43745;BME280;29359;53.048;8.732;2023-04-26T01:36:09;101762.25;;;3.39;89.31
43745;BME280;29359;53.048;8.732;2023-04-26T01:38:10;101757.91;;;3.39;89.92
43745;BME280;29359;53.048;8.732;2023-04-26T01:40:14;101756.16;;;3.38;90.08
43745;BME280;29359;53.048;8.732;2023-04-26T01:42:16;101754.41;;;3.39;90.02
43745;BME280;29359;53.048;8.732;2023-04-26T01:44:18;101753.50;;;3.37;89.94
43745;BME280;29359;53.048;8.732;2023-04-26T01:46:19;101752.66;;;3.38;90.37
43745;BME280;29359;53.048;8.732;2023-04-26T01:48:21;101757.03;;;3.39;90.60
43745;BME280;29359;53.048;8.732;2023-04-26T01:50:22;101744.88;;;3.41;90.45
43745;BME280;29359;53.048;8.732;2023-04-26T01:52:24;101751.84;;;3.42;90.36
43745;BME280;29359;53.048;8.732;2023-04-26T01:54:25;101751.00;;;3.44;90.29
43745;BME280;29359;53.048;8.732;2023-04-26T01:56:27;101743.22;;;3.46;90.34
43745;BME280;29359;53.048;8.732;2023-04-26T01:58:29;101739.78;;;3.47;90.04
43745;BME280;29359;53.048;8.732;2023-04-26T02:00:32;101742.41;;;3.49;90.21
43745;BME280;29359;53.048;8.732;2023-04-26T02:02:33;101743.28;;;3.49;90.00
43745;BME280;29359;53.048;8.732;2023-04-26T02:04:35;101738.97;;;3.53;89.92
43745;BME280;29359;53.048;8.732;2023-04-26T02:06:37;101738.97;;;3.53;89.88
43745;BME280;29359;53.048;8.732;2023-04-26T02:08:38;101739.88;;;3.53;89.57
43745;BME280;29359;53.048;8.732;2023-04-26T02:10:40;101742.50;;;3.55;89.43
43745;BME280;29359;53.048;8.732;2023-04-26T02:12:41;101751.22;;;3.57;89.12
43745;BME280;29359;53.048;8.732;2023-04-26T02:14:43;101751.22;;;3.57;89.15
43745;BME280;29359;53.048;8.732;2023-04-26T02:16:44;101745.97;;;3.54;88.99
43745;BME280;29359;53.048;8.732;2023-04-26T02:18:46;101745.94;;;3.52;88.99
43745;BME280;29359;53.048;8.732;2023-04-26T02:20:50;101745.03;;;3.50;88.50
43745;BME280;29359;53.048;8.732;2023-04-26T02:22:51;101748.50;;;3.49;88.70
43745;BME280;29359;53.048;8.732;2023-04-26T02:24:53;101751.09;;;3.47;88.83
43745;BME280;29359;53.048;8.732;2023-04-26T02:26:54;101745.78;;;3.44;88.94
43745;BME280;29359;53.048;8.732;2023-04-26T02:28:56;101744.88;;;3.41;89.00
43745;BME280;29359;53.048;8.732;2023-04-26T02:30:58;101750.91;;;3.38;88.77
43745;BME280;29359;53.048;8.732;2023-04-26T02:33:00;101749.13;;;3.34;89.28
43745;BME280;29359;53.048;8.732;2023-04-26T02:35:02;101753.38;;;3.29;89.40
43745;BME280;29359;53.048;8.732;2023-04-26T02:37:05;101756.81;;;3.27;89.65
43745;BME280;29359;53.048;8.732;2023-04-26T02:39:07;101743.72;;;3.22;89.44
43745;BME280;29359;53.048;8.732;2023-04-26T02:41:09;101743.72;;;3.22;89.76
43745;BME280;29359;53.048;8.732;2023-04-26T02:43:10;101744.56;;;3.21;89.82
43745;BME280;29359;53.048;8.732;2023-04-26T02:45:12;101743.66;;;3.19;89.84
43745;BME280;29359;53.048;8.732;2023-04-26T02:47:14;101747.13;;;3.18;90.05
43745;BME280;29359;53.048;8.732;2023-04-26T02:49:16;101749.72;;;3.17;90.27
43745;BME280;29359;53.048;8.732;2023-04-26T02:51:18;101741.84;;;3.15;90.34
43745;BME280;29359;53.048;8.732;2023-04-26T02:53:19;101738.34;;;3.13;90.37
43745;BME280;29359;53.048;8.732;2023-04-26T02:55:21;101742.63;;;3.09;90.33
43745;BME280;29359;53.048;8.732;2023-04-26T02:57:23;101750.44;;;3.08;90.49
43745;BME280;29359;53.048;8.732;2023-04-26T02:59:24;101744.28;;;3.04;90.58
43745;BME280;29359;53.048;8.732;2023-04-26T03:01:26;101743.34;;;3.02;90.69
43745;BME280;29359;53.048;8.732;2023-04-26T03:03:27;101747.66;;;3.00;90.84
43745;BME280;29359;53.048;8.732;2023-04-26T03:05:29;101744.97;;;2.96;91.07
43745;BME280;29359;53.048;8.732;2023-04-26T03:07:31;101743.19;;;2.93;91.11
43745;BME280;29359;53.048;8.732;2023-04-26T03:09:33;101745.78;;;2.92;91.28
43745;BME280;29359;53.048;8.732;2023-04-26T03:11:34;101749.25;;;2.92;91.36
43745;BME280;29359;53.048;8.732;2023-04-26T03:13:36;101755.31;;;2.90;91.35
43745;BME280;29359;53.048;8.732;2023-04-26T03:15:37;101749.19;;;2.88;91.53
43745;BME280;29359;53.048;8.732;2023-04-26T03:17:39;101751.78;;;2.88;91.60
43745;BME280;29359;53.048;8.732;2023-04-26T03:19:40;101756.97;;;2.86;91.68
43745;BME280;29359;53.048;8.732;2023-04-26T03:21:42;101758.72;;;2.86;91.85
43745;BME280;29359;53.048;8.732;2023-04-26T03:23:43;101759.56;;;2.84;91.83
43745;BME280;29359;53.048;8.732;2023-04-26T03:25:45;101756.97;;;2.84;91.89
43745;BME280;29359;53.048;8.732;2023-04-26T03:27:47;101758.72;;;2.86;91.84
43745;BME280;29359;53.048;8.732;2023-04-26T03:29:48;101764.78;;;2.84;91.93
43745;BME280;29359;53.048;8.732;2023-04-26T03:31:50;101750.84;;;2.82;91.98
43745;BME280;29359;53.048;8.732;2023-04-26T03:33:51;101761.28;;;2.82;92.28
43745;BME280;29359;53.048;8.732;2023-04-26T03:35:53;101756.03;;;2.81;92.14
43745;BME280;29359;53.048;8.732;2023-04-26T03:37:54;101757.75;;;2.80;92.17
43745;BME280;29359;53.048;8.732;2023-04-26T03:39:58;101753.38;;;2.79;91.95
43745;BME280;29359;53.048;8.732;2023-04-26T03:42:00;101749.88;;;2.77;92.21
43745;BME280;29359;53.048;8.732;2023-04-26T03:44:02;101755.91;;;2.75;92.31
43745;BME280;29359;53.048;8.732;2023-04-26T03:46:04;101752.38;;;2.71;92.51
43745;BME280;29359;53.048;8.732;2023-04-26T03:48:05;101749.75;;;2.70;92.63
43745;BME280;29359;53.048;8.732;2023-04-26T03:50:07;101760.16;;;2.68;92.36
43745;BME280;29359;53.048;8.732;2023-04-26T03:52:09;101749.72;;;2.68;92.72
43745;BME280;29359;53.048;8.732;2023-04-26T03:54:11;101750.59;;;2.69;92.85
43745;BME280;29359;53.048;8.732;2023-04-26T03:56:13;101749.69;;;2.67;92.75
43745;BME280;29359;53.048;8.732;2023-04-26T03:58:14;101745.31;;;2.66;92.92
43745;BME280;29359;53.048;8.732;2023-04-26T04:00:16;101741.88;;;2.67;92.96
43745;BME280;29359;53.048;8.732;2023-04-26T04:02:17;101740.97;;;2.66;92.69
43745;BME280;29359;53.048;8.732;2023-04-26T04:04:19;101746.19;;;2.66;92.74
43745;BME280;29359;53.048;8.732;2023-04-26T04:06:21;101750.50;;;2.64;92.78
43745;BME280;29359;53.048;8.732;2023-04-26T04:08:22;101748.78;;;2.65;92.83
43745;BME280;29359;53.048;8.732;2023-04-26T04:10:24;101739.25;;;2.67;92.81
43745;BME280;29359;53.048;8.732;2023-04-26T04:12:26;101745.28;;;2.64;92.52
43745;BME280;29359;53.048;8.732;2023-04-26T04:14:27;101740.06;;;2.63;92.79
43745;BME280;29359;53.048;8.732;2023-04-26T04:16:29;101752.22;;;2.62;92.65
43745;BME280;29359;53.048;8.732;2023-04-26T04:18:30;101749.50;;;2.59;92.71
43745;BME280;29359;53.048;8.732;2023-04-26T04:20:32;101752.25;;;2.65;92.55
43745;BME280;29359;53.048;8.732;2023-04-26T04:22:33;101752.28;;;2.67;92.05
43745;BME280;29359;53.048;8.732;2023-04-26T04:24:35;101755.75;;;2.66;91.89
43745;BME280;29359;53.048;8.732;2023-04-26T04:26:37;101753.97;;;2.63;91.85
43745;BME280;29359;53.048;8.732;2023-04-26T04:28:39;101760.88;;;2.61;91.86
43745;BME280;29359;53.048;8.732;2023-04-26T04:30:43;101757.41;;;2.61;92.19
43745;BME280;29359;53.048;8.732;2023-04-26T04:32:46;101766.09;;;2.61;92.41
43745;BME280;29359;53.048;8.732;2023-04-26T04:34:48;101766.16;;;2.64;92.40
43745;BME280;29359;53.048;8.732;2023-04-26T04:36:50;101763.63;;;2.69;92.78
43745;BME280;29359;53.048;8.732;2023-04-26T04:38:52;101760.25;;;2.74;92.62
43745;BME280;29359;53.048;8.732;2023-04-26T04:40:54;101750.81;;;2.81;92.55
43745;BME280;29359;53.048;8.732;2023-04-26T04:42:55;101750.09;;;2.90;92.31
43745;BME280;29359;53.048;8.732;2023-04-26T04:44:57;101755.44;;;2.97;92.50
43745;BME280;29359;53.048;8.732;2023-04-26T04:46:59;101755.66;;;3.08;92.23
43745;BME280;29359;53.048;8.732;2023-04-26T04:49:01;101761.03;;;3.19;91.72
43745;BME280;29359;53.048;8.732;2023-04-26T04:51:03;101765.41;;;3.20;91.44
43745;BME280;29359;53.048;8.732;2023-04-26T04:53:05;101766.25;;;3.17;91.02
43745;BME280;29359;53.048;8.732;2023-04-26T04:55:07;101760.16;;;3.17;91.06
43745;BME280;29359;53.048;8.732;2023-04-26T04:57:08;101764.50;;;3.18;91.15
43745;BME280;29359;53.048;8.732;2023-04-26T04:59:11;101782.81;;;3.21;90.75
43745;BME280;29359;53.048;8.732;2023-04-26T05:01:12;101775.06;;;3.25;90.26
43745;BME280;29359;53.048;8.732;2023-04-26T05:03:15;101774.22;;;3.26;90.69
43745;BME280;29359;53.048;8.732;2023-04-26T05:05:17;101777.81;;;3.33;90.56
43745;BME280;29359;53.048;8.732;2023-04-26T05:07:18;101777.88;;;3.37;90.00
43745;BME280;29359;53.048;8.732;2023-04-26T05:09:20;101774.50;;;3.44;90.02
43745;BME280;29359;53.048;8.732;2023-04-26T05:11:21;101770.31;;;3.53;89.53
43745;BME280;29359;53.048;8.732;2023-04-26T05:13:23;101769.56;;;3.61;89.61
43745;BME280;29359;53.048;8.732;2023-04-26T05:15:25;101771.47;;;3.71;89.20
43745;BME280;29359;53.048;8.732;2023-04-26T05:17:26;101771.63;;;3.82;88.78
43745;BME280;29359;53.048;8.732;2023-04-26T05:19:28;101765.66;;;3.91;87.97
43745;BME280;29359;53.048;8.732;2023-04-26T05:21:29;101778.81;;;3.97;87.91
43745;BME280;29359;53.048;8.732;2023-04-26T05:23:32;101763.25;;;4.04;87.12
43745;BME280;29359;53.048;8.732;2023-04-26T05:25:39;101772.06;;;4.14;86.45
43745;BME280;29359;53.048;8.732;2023-04-26T05:27:41;101766.06;;;4.21;86.76
43745;BME280;29359;53.048;8.732;2023-04-26T05:29:42;101769.66;;;4.31;86.43
43745;BME280;29359;53.048;8.732;2023-04-26T05:31:44;101766.22;;;4.33;85.11
43745;BME280;29359;53.048;8.732;2023-04-26T05:33:46;101778.47;;;4.36;85.80
43745;BME280;29359;53.048;8.732;2023-04-26T05:35:47;101775.00;;;4.38;85.03
43745;BME280;29359;53.048;8.732;2023-04-26T05:37:49;101774.16;;;4.39;85.37
43745;BME280;29359;53.048;8.732;2023-04-26T05:39:50;101770.69;;;4.42;85.40
43745;BME280;29359;53.048;8.732;2023-04-26T05:41:52;101767.25;;;4.45;84.41
43745;BME280;29359;53.048;8.732;2023-04-26T05:43:54;101775.09;;;4.45;83.55
43745;BME280;29359;53.048;8.732;2023-04-26T05:45:56;101780.34;;;4.46;84.29
43745;BME280;29359;53.048;8.732;2023-04-26T05:47:57;101784.72;;;4.50;83.47
43745;BME280;29359;53.048;8.732;2023-04-26T05:49:59;101785.63;;;4.52;83.41
43745;BME280;29359;53.048;8.732;2023-04-26T05:52:01;101785.66;;;4.55;83.86
43745;BME280;29359;53.048;8.732;2023-04-26T05:54:04;101779.59;;;4.58;82.98
43745;BME280;29359;53.048;8.732;2023-04-26T05:56:05;101784.91;;;4.65;83.33
43745;BME280;29359;53.048;8.732;2023-04-26T05:58:08;101783.19;;;4.69;84.03
43745;BME280;29359;53.048;8.732;2023-04-26T06:00:10;101787.63;;;4.76;83.48
43745;BME280;29359;53.048;8.732;2023-04-26T06:02:12;101786.88;;;4.83;83.72
43745;BME280;29359;53.048;8.732;2023-04-26T06:04:14;101789.50;;;4.86;83.69
43745;BME280;29359;53.048;8.732;2023-04-26T06:06:16;101786.97;;;4.94;82.98
43745;BME280;29359;53.048;8.732;2023-04-26T06:08:18;101784.44;;;5.01;82.95
43745;BME280;29359;53.048;8.732;2023-04-26T06:10:20;101778.31;;;5.02;83.29
43745;BME280;29359;53.048;8.732;2023-04-26T06:12:22;101784.44;;;5.03;83.08
43745;BME280;29359;53.048;8.732;2023-04-26T06:14:23;101780.06;;;5.00;82.89
43745;BME280;29359;53.048;8.732;2023-04-26T06:16:29;101791.34;;;4.96;82.96
43745;BME280;29359;53.048;8.732;2023-04-26T06:18:30;101785.22;;;4.93;82.78
43745;BME280;29359;53.048;8.732;2023-04-26T06:20:32;101782.59;;;4.91;82.71
43745;BME280;29359;53.048;8.732;2023-04-26T06:22:33;101785.19;;;4.90;83.22
43745;BME280;29359;53.048;8.732;2023-04-26T06:24:35;101799.16;;;4.90;82.40
43745;BME280;29359;53.048;8.732;2023-04-26T06:26:36;101788.66;;;4.89;82.34
43745;BME280;29359;53.048;8.732;2023-04-26T06:28:38;101793.97;;;4.95;83.65
43745;BME280;29359;53.048;8.732;2023-04-26T06:30:42;101791.41;;;5.01;83.66
43745;BME280;29359;53.048;8.732;2023-04-26T06:32:44;101804.53;;;5.07;83.29
43745;BME280;29359;53.048;8.732;2023-04-26T06:34:46;101797.56;;;5.06;82.51
43745;BME280;29359;53.048;8.732;2023-04-26T06:36:47;101801.91;;;5.05;82.76
43745;BME280;29359;53.048;8.732;2023-04-26T06:38:49;101808.91;;;5.08;82.14
43745;BME280;29359;53.048;8.732;2023-04-26T06:40:50;101811.50;;;5.05;81.37
43745;BME280;29359;53.048;8.732;2023-04-26T06:42:52;101816.75;;;5.05;81.92
43745;BME280;29359;53.048;8.732;2023-04-26T06:44:55;101812.41;;;5.07;81.75
43745;BME280;29359;53.048;8.732;2023-04-26T06:46:56;101808.03;;;5.08;82.00
43745;BME280;29359;53.048;8.732;2023-04-26T06:49:00;101813.31;;;5.12;82.05
43745;BME280;29359;53.048;8.732;2023-04-26T06:51:05;101817.69;;;5.13;82.03
43745;BME280;29359;53.048;8.732;2023-04-26T06:53:07;101810.72;;;5.15;81.10
43745;BME280;29359;53.048;8.732;2023-04-26T06:55:09;101809.88;;;5.16;80.27
43745;BME280;29359;53.048;8.732;2023-04-26T06:57:10;101811.69;;;5.20;80.33
43745;BME280;29359;53.048;8.732;2023-04-26T06:59:12;101818.69;;;5.23;81.47
43745;BME280;29359;53.048;8.732;2023-04-26T07:01:13;101817.00;;;5.29;81.24
43745;BME280;29359;53.048;8.732;2023-04-26T07:03:15;101824.03;;;5.35;81.17
43745;BME280;29359;53.048;8.732;2023-04-26T07:05:17;101823.19;;;5.38;79.71
43745;BME280;29359;53.048;8.732;2023-04-26T07:07:19;101824.06;;;5.40;80.58
43745;BME280;29359;53.048;8.732;2023-04-26T07:09:21;101825.00;;;5.46;79.53
43745;BME280;29359;53.048;8.732;2023-04-26T07:11:23;101823.28;;;5.50;79.14
43745;BME280;29359;53.048;8.732;2023-04-26T07:13:26;101816.34;;;5.58;79.53
43745;BME280;29359;53.048;8.732;2023-04-26T07:15:28;101823.47;;;5.71;79.40
43745;BME280;29359;53.048;8.732;2023-04-26T07:17:30;101819.16;;;5.78;79.20
43745;BME280;29359;53.048;8.732;2023-04-26T07:19:31;101821.84;;;5.88;77.96
43745;BME280;29359;53.048;8.732;2023-04-26T07:21:33;101818.41;;;5.94;77.10
43745;BME280;29359;53.048;8.732;2023-04-26T07:23:34;101822.78;;;5.96;75.72
43745;BME280;29359;53.048;8.732;2023-04-26T07:25:36;101819.31;;;6.01;75.61
43745;BME280;29359;53.048;8.732;2023-04-26T07:27:38;101819.34;;;6.07;76.00
43745;BME280;29359;53.048;8.732;2023-04-26T07:29:39;101816.84;;;6.19;76.82
43745;BME280;29359;53.048;8.732;2023-04-26T07:31:41;101825.66;;;6.33;76.32
43745;BME280;29359;53.048;8.732;2023-04-26T07:33:43;101816.94;;;6.43;74.78
43745;BME280;29359;53.048;8.732;2023-04-26T07:35:52;101816.16;;;6.55;74.16
43745;BME280;29359;53.048;8.732;2023-04-26T07:37:54;101824.06;;;6.64;73.39
43745;BME280;29359;53.048;8.732;2023-04-26T07:39:55;101826.69;;;6.70;72.49
43745;BME280;29359;53.048;8.732;2023-04-26T07:41:57;101818.81;;;6.73;72.36
43745;BME280;29359;53.048;8.732;2023-04-26T07:43:58;101817.09;;;6.80;72.84
43745;BME280;29359;53.048;8.732;2023-04-26T07:46:00;101818.00;;;6.92;73.28
43745;BME280;29359;53.048;8.732;2023-04-26T07:48:02;101820.69;;;7.03;72.67
43745;BME280;29359;53.048;8.732;2023-04-26T07:50:05;101816.31;;;7.13;71.37
43745;BME280;29359;53.048;8.732;2023-04-26T07:52:09;101825.97;;;7.23;70.45
43745;BME280;29359;53.048;8.732;2023-04-26T07:54:11;101822.44;;;7.22;69.01
43745;BME280;29359;53.048;8.732;2023-04-26T07:56:12;101822.47;;;7.27;69.14
43745;BME280;29359;53.048;8.732;2023-04-26T07:58:14;101820.75;;;7.38;69.62
43745;BME280;29359;53.048;8.732;2023-04-26T08:00:16;101821.63;;;7.49;69.32
43745;BME280;29359;53.048;8.732;2023-04-26T08:02:19;101815.50;;;7.49;67.31
43745;BME280;29359;53.048;8.732;2023-04-26T08:04:31;101822.50;;;7.53;67.20
43745;BME280;29359;53.048;8.732;2023-04-26T08:06:37;101819.88;;;7.57;67.39
43745;BME280;29359;53.048;8.732;2023-04-26T08:08:39;101833.88;;;7.56;67.25
43745;BME280;29359;53.048;8.732;2023-04-26T08:10:45;101833.88;;;7.49;66.74
43745;BME280;29359;53.048;8.732;2023-04-26T08:12:46;101826.00;;;7.44;66.85
43745;BME280;29359;53.048;8.732;2023-04-26T08:14:48;101834.75;;;7.42;66.84
43745;BME280;29359;53.048;8.732;2023-04-26T08:16:49;101825.13;;;7.38;67.44
43745;BME280;29359;53.048;8.732;2023-04-26T08:18:51;101826.00;;;7.46;68.60
43745;BME280;29359;53.048;8.732;2023-04-26T08:20:53;101823.38;;;7.58;67.52
43745;BME280;29359;53.048;8.732;2023-04-26T08:22:55;101822.47;;;7.68;67.16
43745;BME280;29359;53.048;8.732;2023-04-26T08:24:57;101825.13;;;7.85;68.05
43745;BME280;29359;53.048;8.732;2023-04-26T08:26:58;101833.88;;;7.92;65.14
43745;BME280;29359;53.048;8.732;2023-04-26T08:29:00;101830.38;;;7.88;63.35
43745;BME280;29359;53.048;8.732;2023-04-26T08:31:02;101829.50;;;7.92;63.31
43745;BME280;29359;53.048;8.732;2023-04-26T08:33:04;101832.09;;;7.98;63.30
43745;BME280;29359;53.048;8.732;2023-04-26T08:35:07;101818.94;;;8.03;63.96
43745;BME280;29359;53.048;8.732;2023-04-26T08:37:10;101833.81;;;8.13;65.49
43745;BME280;29359;53.048;8.732;2023-04-26T08:39:12;101834.69;;;8.18;62.61
43745;BME280;29359;53.048;8.732;2023-04-26T08:41:14;101829.44;;;8.12;62.95
43745;BME280;29359;53.048;8.732;2023-04-26T08:43:21;101832.06;;;8.13;62.61
43745;BME280;29359;53.048;8.732;2023-04-26T08:45:23;101832.06;;;8.21;61.33
43745;BME280;29359;53.048;8.732;2023-04-26T08:49:53;101832.91;;;8.41;59.82
43745;BME280;29359;53.048;8.732;2023-04-26T08:52:00;101834.69;;;8.29;60.38
43745;BME280;29359;53.048;8.732;2023-04-26T08:54:04;101834.69;;;8.29;62.30
43745;BME280;29359;53.048;8.732;2023-04-26T08:56:07;101835.56;;;8.26;62.25
43745;BME280;29359;53.048;8.732;2023-04-26T08:58:11;101841.69;;;8.17;60.51
43745;BME280;29359;53.048;8.732;2023-04-26T09:00:13;101833.81;;;8.13;61.01
43745;BME280;29359;53.048;8.732;2023-04-26T09:02:18;101825.94;;;8.11;60.78
43745;BME280;29359;53.048;8.732;2023-04-26T09:04:20;101827.69;;;8.11;61.75
43745;BME280;29359;53.048;8.732;2023-04-26T09:06:22;101832.06;;;8.18;61.23
43745;BME280;29359;53.048;8.732;2023-04-26T09:08:24;101825.91;;;8.37;62.92
43745;BME280;29359;53.048;8.732;2023-04-26T09:10:28;101832.88;;;8.50;61.31
43745;BME280;29359;53.048;8.732;2023-04-26T09:12:31;101825.88;;;8.46;58.74
43745;BME280;29359;53.048;8.732;2023-04-26T09:14:33;101829.44;;;8.39;59.67
43745;BME280;29359;53.048;8.732;2023-04-26T09:16:35;101844.31;;;8.33;60.29
43745;BME280;29359;53.048;8.732;2023-04-26T09:18:49;101849.59;;;8.27;59.58
43745;BME280;29359;53.048;8.732;2023-04-26T09:21:06;101838.22;;;8.11;57.81
43745;BME280;29359;53.048;8.732;2023-04-26T09:23:09;101841.75;;;8.02;59.99
43745;BME280;29359;53.048;8.732;2023-04-26T09:25:11;101845.25;;;7.98;61.41
43745;BME280;29359;53.048;8.732;2023-04-26T09:27:13;101844.38;;;7.95;61.94
43745;BME280;29359;53.048;8.732;2023-04-26T09:29:17;101856.66;;;7.90;61.65
43745;BME280;29359;53.048;8.732;2023-04-26T09:31:36;101857.53;;;7.87;62.59
43745;BME280;29359;53.048;8.732;2023-04-26T09:33:56;101861.06;;;7.84;63.83
43745;BME280;29359;53.048;8.732;2023-04-26T09:36:12;101874.19;;;7.91;67.29
43745;BME280;29359;53.048;8.732;2023-04-26T09:38:17;101872.44;;;7.82;66.24
43745;BME280;29359;53.048;8.732;2023-04-26T09:40:20;101874.16;;;7.75;68.33
43745;BME280;29359;53.048;8.732;2023-04-26T09:42:22;101871.53;;;7.65;67.25
43745;BME280;29359;53.048;8.732;2023-04-26T09:44:24;101868.03;;;7.46;65.74
43745;BME280;29359;53.048;8.732;2023-04-26T09:46:25;101874.13;;;7.34;66.96
43745;BME280;29359;53.048;8.732;2023-04-26T09:48:32;101864.50;;;7.36;69.03
43745;BME280;29359;53.048;8.732;2023-04-26T09:50:35;101881.16;;;7.38;68.24
43745;BME280;29359;53.048;8.732;2023-04-26T09:52:42;101877.66;;;7.38;68.74
43745;BME280;29359;53.048;8.732;2023-04-26T09:54:49;101889.00;;;7.35;68.83
43745;BME280;29359;53.048;8.732;2023-04-26T09:57:00;101882.00;;;7.27;69.14
43745;BME280;29359;53.048;8.732;2023-04-26T09:59:02;101882.84;;;7.18;70.32
43745;BME280;29359;53.048;8.732;2023-04-26T10:01:07;101886.34;;;7.09;70.10
43745;BME280;29359;53.048;8.732;2023-04-26T10:03:09;101884.56;;;6.98;70.26
43745;BME280;29359;53.048;8.732;2023-04-26T10:05:12;101877.50;;;6.90;70.84
43745;BME280;29359;53.048;8.732;2023-04-26T10:07:16;101881.88;;;6.90;71.85
43745;BME280;29359;53.048;8.732;2023-04-26T10:09:18;101877.53;;;6.95;71.57
43745;BME280;29359;53.048;8.732;2023-04-26T10:11:20;101878.44;;;7.00;71.50
43745;BME280;29359;53.048;8.732;2023-04-26T10:13:22;101881.09;;;7.15;72.07
43745;BME280;29359;53.048;8.732;2023-04-26T10:15:25;101878.50;;;7.34;70.03
43745;BME280;29359;53.048;8.732;2023-04-26T10:17:27;101872.41;;;7.51;70.42
43745;BME280;29359;53.048;8.732;2023-04-26T10:19:30;101875.03;;;7.67;69.50
43745;BME280;29359;53.048;8.732;2023-04-26T10:21:35;101875.94;;;7.82;69.18
43745;BME280;29359;53.048;8.732;2023-04-26T10:23:39;101875.94;;;7.98;68.40
43745;BME280;29359;53.048;8.732;2023-04-26T10:25:41;101877.69;;;8.03;67.09
43745;BME280;29359;53.048;8.732;2023-04-26T10:34:20;101866.22;;;8.52;66.78
43745;BME280;29359;53.048;8.732;2023-04-26T10:36:21;101858.25;;;8.76;66.17
43745;BME280;29359;53.048;8.732;2023-04-26T10:38:23;101861.66;;;8.96;64.91
43745;BME280;29359;53.048;8.732;2023-04-26T10:40:30;101866.00;;;9.03;63.75
43745;BME280;29359;53.048;8.732;2023-04-26T10:42:32;101865.13;;;9.04;63.63
43745;BME280;29359;53.048;8.732;2023-04-26T10:44:38;101880.03;;;9.04;64.79
43745;BME280;29359;53.048;8.732;2023-04-26T10:46:48;101878.38;;;8.86;67.48
43745;BME280;29359;53.048;8.732;2023-04-26T10:48:51;101872.31;;;8.70;67.92
43745;BME280;29359;53.048;8.732;2023-04-26T10:53:12;101875.00;;;8.20;67.00
43745;BME280;29359;53.048;8.732;2023-04-26T10:55:40;101872.41;;;8.25;70.32
43745;BME280;29359;53.048;8.732;2023-04-26T10:57:51;101865.38;;;8.40;71.07
43745;BME280;29359;53.048;8.732;2023-04-26T11:02:11;101864.34;;;8.86;70.39
43745;BME280;29359;53.048;8.732;2023-04-26T11:04:13;101867.81;;;8.92;68.14